Time;durP1;ratioP1;P1;durP2;ratioP2;P2;SDS_P1;SDS_P2;PMS_P1;PMS_P2;Temp;Humidity;BMP_temperature;BMP_pressure;BME280_temperature;BME280_humidity;BME280_pressure;Samples;Min_cycle;Max_cycle;Signal;HPM_P1;HPM_P2
2023/07/24 00:01:23;;;;;;;4.90;3.50;;;;;;;19.17;72.62;99509.74;179313;1256;43850;-82
2023/07/24 00:05:26;;;;;;;4.70;3.50;;;;;;;19.15;72.80;99506.63;179082;1253;46254;-83
2023/07/24 00:09:29;;;;;;;6.90;3.40;;;;;;;19.12;73.50;99501.02;178961;1254;46194;-82
2023/07/24 00:13:32;;;;;;;7.70;2.90;;;;;;;19.13;72.97;99499.29;178985;1254;46130;-82
2023/07/24 00:17:35;;;;;;;8.50;4.00;;;;;;;19.17;72.95;99493.91;178626;1254;56896;-82
2023/07/24 00:21:38;;;;;;;12.20;5.30;;;;;;;19.21;72.71;99492.89;179218;1254;45998;-83
2023/07/24 00:25:41;;;;;;;6.80;4.10;;;;;;;19.25;73.03;99485.92;179246;1255;45970;-82
2023/07/24 00:29:44;;;;;;;8.40;4.60;;;;;;;19.28;72.86;99482.47;178653;1254;46006;-83
2023/07/24 00:33:47;;;;;;;11.60;4.00;;;;;;;19.22;73.29;99474.55;178769;1253;46803;-83
2023/07/24 00:37:50;;;;;;;8.00;4.30;;;;;;;19.14;74.02;99471.96;178930;1253;59667;-83
2023/07/24 00:41:53;;;;;;;6.40;4.30;;;;;;;19.08;74.16;99470.16;179409;1253;46003;-83
2023/07/24 00:45:56;;;;;;;7.00;3.70;;;;;;;19.04;74.58;99469.39;178874;1253;45983;-83
2023/07/24 00:49:59;;;;;;;8.40;4.40;;;;;;;18.98;74.86;99468.04;179241;1254;45219;-83
2023/07/24 00:54:05;;;;;;;13.90;5.00;;;;;;;18.91;75.10;99473.55;179106;1256;46098;-81
2023/07/24 00:58:11;;;;;;;6.70;3.80;;;;;;;18.87;74.98;99476.13;178666;1255;59450;-83
2023/07/24 01:02:14;;;;;;;12.00;4.90;;;;;;;18.84;75.36;99471.97;178864;1253;45984;-83
2023/07/24 01:06:17;;;;;;;8.60;4.70;;;;;;;18.79;75.27;99467.39;179105;1254;45925;-83
2023/07/24 01:10:21;;;;;;;10.50;5.30;;;;;;;18.70;75.97;99462.39;178882;1252;46000;-83
2023/07/24 01:14:49;;;;;;;7.60;5.10;;;;;;;18.62;76.60;99461.02;179037;1254;45865;-83
2023/07/24 01:18:55;;;;;;;11.60;5.90;;;;;;;18.50;77.42;99459.08;178776;1256;58661;-83
2023/07/24 01:23:28;;;;;;;8.40;4.10;;;;;;;18.44;77.87;99453.61;179562;1252;45984;-83
2023/07/24 01:27:32;;;;;;;9.60;4.60;;;;;;;18.39;78.25;99457.73;179166;1253;45931;-83
2023/07/24 01:31:35;;;;;;;7.50;4.40;;;;;;;18.38;78.37;99456.60;179420;1253;46031;-83
2023/07/24 01:35:38;;;;;;;6.50;5.00;;;;;;;18.39;78.30;99455.74;179002;1253;45232;-83
2023/07/24 01:39:43;;;;;;;7.50;4.70;;;;;;;18.47;78.65;99461.08;179026;1254;58189;-83
2023/07/24 01:43:46;;;;;;;6.10;3.40;;;;;;;18.57;78.06;99459.25;179188;1253;46000;-83
2023/07/24 01:47:49;;;;;;;12.80;3.80;;;;;;;18.65;77.82;99448.31;179031;1254;46108;-83
2023/07/24 01:51:52;;;;;;;6.30;3.90;;;;;;;18.74;76.85;99445.58;179008;1253;46131;-81
2023/07/24 01:55:55;;;;;;;4.80;3.90;;;;;;;18.81;76.48;99441.79;178181;1253;44291;-80
2023/07/24 01:59:58;;;;;;;8.40;3.80;;;;;;;18.89;76.43;99434.16;177779;1254;59291;-81
2023/07/24 02:04:02;;;;;;;5.90;3.90;;;;;;;18.96;76.09;99425.99;178031;1252;46028;-80
2023/07/24 02:08:05;;;;;;;6.20;4.30;;;;;;;19.04;76.02;99418.27;178388;1253;46156;-80
2023/07/24 02:12:08;;;;;;;4.70;3.40;;;;;;;19.08;76.57;99427.24;177987;1253;46124;-83
2023/07/24 02:16:12;;;;;;;12.20;4.20;;;;;;;19.12;76.25;99425.80;178728;1253;47735;-83
2023/07/24 02:20:15;;;;;;;5.70;4.00;;;;;;;19.16;76.36;99424.98;178783;1254;58235;-82
2023/07/24 02:24:18;;;;;;;5.50;3.60;;;;;;;19.19;76.33;99418.27;178739;1256;46211;-83
2023/07/24 02:28:21;;;;;;;4.50;3.30;;;;;;;19.18;76.39;99410.59;178786;1254;46136;-83
2023/07/24 02:32:24;;;;;;;8.90;4.50;;;;;;;19.17;76.04;99406.24;179051;1252;45941;-83
2023/07/24 02:36:27;;;;;;;8.50;4.20;;;;;;;19.11;76.99;99406.80;178642;1254;46012;-83
2023/07/24 02:40:31;;;;;;;11.00;4.30;;;;;;;19.05;77.67;99409.31;178914;1254;58652;-83
2023/07/24 02:44:35;;;;;;;7.40;5.10;;;;;;;19.05;77.24;99409.08;179394;1254;45999;-83
2023/07/24 02:48:38;;;;;;;5.80;3.80;;;;;;;19.07;76.99;99413.65;178817;1254;46108;-84
2023/07/24 02:52:40;;;;;;;5.90;3.50;;;;;;;19.11;76.64;99418.59;178619;1256;45936;-83
2023/07/24 02:56:43;;;;;;;6.70;3.90;;;;;;;19.14;76.76;99421.74;179149;1253;45987;-83
2023/07/24 03:00:46;;;;;;;13.50;5.90;;;;;;;19.16;78.34;99426.60;179194;1254;59891;-83
2023/07/24 03:04:49;;;;;;;4.20;3.20;;;;;;;19.16;78.94;99431.86;178995;1253;46691;-83
2023/07/24 03:08:53;;;;;;;4.40;3.70;;;;;;;19.13;79.54;99421.11;179304;1254;45964;-84
2023/07/24 03:12:56;;;;;;;6.00;4.00;;;;;;;19.14;79.59;99417.23;179195;1254;46088;-83
2023/07/24 03:16:59;;;;;;;6.40;3.80;;;;;;;19.21;79.87;99416.20;179625;1253;45989;-83
2023/07/24 03:21:05;;;;;;;11.00;3.50;;;;;;;19.25;80.46;99419.60;178859;1252;58055;-84
2023/07/24 03:25:08;;;;;;;4.60;3.60;;;;;;;19.28;80.17;99421.59;179538;1256;46101;-84
2023/07/24 03:29:11;;;;;;;3.90;2.90;;;;;;;19.33;81.11;99419.88;179378;1253;46009;-83
2023/07/24 03:33:14;;;;;;;6.80;3.10;;;;;;;19.35;80.69;99422.00;179326;1253;44095;-83
2023/07/24 03:37:17;;;;;;;7.50;3.80;;;;;;;19.42;82.12;99410.35;179816;1253;46009;-84
2023/07/24 03:41:20;;;;;;;4.60;3.20;;;;;;;19.45;80.55;99400.23;180134;1253;58538;-84
2023/07/24 03:45:23;;;;;;;3.30;3.00;;;;;;;19.59;80.33;99400.77;180401;1254;45987;-83
2023/07/24 03:49:26;;;;;;;6.80;4.00;;;;;;;19.67;79.45;99398.38;179482;1252;46003;-83
2023/07/24 03:53:29;;;;;;;3.80;3.20;;;;;;;19.77;79.19;99403.64;179232;1253;45990;-83
2023/07/24 03:57:34;;;;;;;5.00;3.30;;;;;;;19.92;79.14;99405.91;179133;1252;45910;-83
2023/07/24 04:01:37;;;;;;;6.00;2.70;;;;;;;20.03;78.28;99403.54;179567;1254;57954;-83
2023/07/24 04:05:40;;;;;;;6.30;3.30;;;;;;;20.15;77.92;99407.95;179253;1254;46073;-84
2023/07/24 04:09:43;;;;;;;5.20;3.00;;;;;;;20.30;76.65;99411.00;179701;1254;45986;-83
2023/07/24 04:13:46;;;;;;;3.80;2.80;;;;;;;20.45;75.47;99413.37;179941;1256;46108;-83
2023/07/24 04:17:50;;;;;;;3.60;2.90;;;;;;;20.63;74.56;99413.52;179290;1253;45961;-84
2023/07/24 04:21:53;;;;;;;4.30;3.70;;;;;;;20.80;74.19;99411.06;178735;1253;58515;-83
2023/07/24 04:25:56;;;;;;;22.40;5.50;;;;;;;20.99;73.74;99415.05;179364;1254;46070;-81
2023/07/24 04:29:59;;;;;;;23.70;4.80;;;;;;;21.16;73.41;99411.38;180573;1254;45903;-83
2023/07/24 04:34:01;;;;;;;4.10;3.70;;;;;;;21.31;72.03;99402.70;179280;1253;46357;-83
2023/07/24 04:38:04;;;;;;;4.50;3.10;;;;;;;21.43;71.31;99398.23;179022;1253;46190;-83
2023/07/24 04:42:08;;;;;;;9.50;4.00;;;;;;;21.57;70.88;99392.19;179865;1253;59564;-83
2023/07/24 04:46:10;;;;;;;9.70;3.60;;;;;;;21.70;70.20;99388.57;179125;1254;45958;-83
2023/07/24 04:50:14;;;;;;;4.00;3.10;;;;;;;21.79;69.53;99383.11;179425;1256;45924;-83
2023/07/24 04:54:17;;;;;;;6.10;3.60;;;;;;;21.90;69.79;99383.64;179612;1254;46172;-84
2023/07/24 04:58:20;;;;;;;3.80;2.50;;;;;;;21.96;69.42;99377.05;179341;1254;46070;-83
2023/07/24 05:02:23;;;;;;;4.20;2.40;;;;;;;22.04;69.38;99380.77;179354;1253;58102;-83
2023/07/24 05:06:26;;;;;;;6.20;4.30;;;;;;;22.13;69.09;99383.85;179579;1253;45220;-83
2023/07/24 05:10:37;;;;;;;6.70;3.60;;;;;;;22.20;67.83;99378.48;179671;1253;44789;-84
2023/07/24 05:14:40;;;;;;;7.30;3.40;;;;;;;22.31;67.80;99367.65;180090;1252;44503;-84
2023/07/24 05:18:43;;;;;;;5.10;2.80;;;;;;;22.43;67.74;99363.39;180091;1254;44821;-83
2023/07/24 05:22:46;;;;;;;8.00;4.00;;;;;;;22.57;67.39;99356.91;180233;1254;58021;-83
2023/07/24 05:26:49;;;;;;;4.00;3.10;;;;;;;22.69;66.84;99351.08;179730;1253;46081;-83
2023/07/24 05:30:52;;;;;;;4.70;2.30;;;;;;;22.79;66.65;99333.40;179638;1253;46013;-84
2023/07/24 05:34:55;;;;;;;8.90;3.40;;;;;;;22.95;66.47;99324.39;179608;1253;46064;-83
2023/07/24 05:38:58;;;;;;;4.60;3.30;;;;;;;23.08;66.96;99326.23;179660;1253;45970;-83
2023/07/24 05:43:01;;;;;;;5.70;2.60;;;;;;;23.20;66.41;99322.03;179644;1252;58270;-83
2023/07/24 05:47:04;;;;;;;5.10;3.40;;;;;;;23.31;66.67;99326.60;179620;1252;46109;-84
2023/07/24 05:51:07;;;;;;;4.70;3.40;;;;;;;23.43;66.73;99325.16;179837;1253;45984;-83
2023/07/24 05:55:11;;;;;;;6.20;3.80;;;;;;;23.50;65.41;99322.67;179677;1252;46018;-83
2023/07/24 05:59:14;;;;;;;4.30;3.70;;;;;;;23.62;66.35;99323.08;179879;1254;46133;-84
2023/07/24 06:03:17;;;;;;;10.80;4.40;;;;;;;23.74;65.39;99321.86;179746;1256;59116;-83
2023/07/24 06:07:21;;;;;;;42.40;7.40;;;;;;;23.87;65.91;99310.28;179921;1252;46094;-84
2023/07/24 06:11:26;;;;;;;24.10;3.80;;;;;;;24.02;65.36;99300.73;179496;1253;46095;-83
2023/07/24 06:15:29;;;;;;;6.20;3.50;;;;;;;24.20;64.21;99298.22;179722;1254;46092;-84
2023/07/24 06:19:32;;;;;;;5.50;3.60;;;;;;;24.32;64.04;99298.96;180139;1254;46095;-84
2023/07/24 06:23:35;;;;;;;22.20;8.50;;;;;;;24.43;63.10;99302.98;179811;1254;58640;-84
2023/07/24 06:27:38;;;;;;;3.80;2.40;;;;;;;24.53;63.11;99307.40;179813;1253;46635;-84
2023/07/24 06:31:42;;;;;;;3.90;2.30;;;;;;;24.66;63.08;99311.19;179883;1254;43581;-84
2023/07/24 06:35:45;;;;;;;4.20;2.50;;;;;;;24.84;62.04;99308.98;180119;1252;46130;-84
2023/07/24 06:39:48;;;;;;;9.00;3.00;;;;;;;25.09;61.47;99305.29;180355;1254;46092;-84
2023/07/24 06:43:51;;;;;;;5.30;2.90;;;;;;;25.31;60.51;99298.58;179936;1254;59633;-83
2023/07/24 06:47:54;;;;;;;5.50;2.20;;;;;;;25.74;60.55;99297.45;180541;1254;44250;-84
2023/07/24 06:51:57;;;;;;;6.90;3.30;;;;;;;26.22;59.09;99289.95;180249;1254;44116;-84
2023/07/24 06:56:01;;;;;;;8.00;2.50;;;;;;;26.76;56.82;99289.64;180526;1255;45996;-84
2023/07/24 07:00:05;;;;;;;4.00;3.00;;;;;;;27.29;56.13;99275.65;180421;1254;45897;-84
2023/07/24 07:04:08;;;;;;;37.10;7.40;;;;;;;27.86;54.35;99264.45;180641;1254;59271;-84
2023/07/24 07:08:11;;;;;;;5.20;2.70;;;;;;;28.41;53.72;99266.59;180711;1252;46099;-84
2023/07/24 07:12:16;;;;;;;4.30;2.80;;;;;;;28.92;52.16;99264.77;180649;1254;46104;-84
2023/07/24 07:16:22;;;;;;;6.30;2.60;;;;;;;29.41;51.39;99263.84;180900;1253;44839;-84
2023/07/24 07:20:25;;;;;;;7.80;3.40;;;;;;;29.70;49.67;99262.74;180701;1252;43740;-84
2023/07/24 07:24:29;;;;;;;3.50;2.60;;;;;;;29.90;49.46;99260.44;180752;1254;57865;-84
2023/07/24 07:28:33;;;;;;;5.60;2.50;;;;;;;29.93;48.77;99250.77;181081;1254;44115;-83
2023/07/24 07:32:36;;;;;;;4.40;2.90;;;;;;;29.92;48.77;99247.60;180721;1254;45117;-84
2023/07/24 07:36:40;;;;;;;19.50;5.60;;;;;;;30.06;48.74;99243.23;180640;1252;43827;-84
2023/07/24 07:40:43;;;;;;;6.70;2.70;;;;;;;30.32;48.13;99236.41;180964;1253;45106;-84
2023/07/24 07:44:47;;;;;;;3.70;3.30;;;;;;;30.68;47.66;99233.56;180920;1254;57918;-83
2023/07/24 07:48:50;;;;;;;5.00;3.70;;;;;;;30.94;47.04;99233.58;180844;1254;46196;-84
2023/07/24 07:52:54;;;;;;;3.40;2.40;;;;;;;31.26;46.48;99226.13;180735;1254;44673;-84
2023/07/24 07:56:58;;;;;;;5.00;3.10;;;;;;;31.39;45.56;99234.08;180691;1252;45968;-84
2023/07/24 08:01:06;;;;;;;5.30;3.20;;;;;;;31.44;45.53;99246.39;181078;1253;46114;-84
2023/07/24 08:05:11;;;;;;;5.30;3.10;;;;;;;31.63;45.67;99243.70;181095;1252;58211;-84
2023/07/24 08:09:23;;;;;;;13.30;2.40;;;;;;;31.86;45.11;99232.59;180777;1253;46460;-84
2023/07/24 08:13:27;;;;;;;3.80;2.10;;;;;;;31.94;44.85;99225.27;180927;1256;45394;-84
2023/07/24 08:17:31;;;;;;;5.70;3.70;;;;;;;32.16;45.21;99217.73;180852;1254;49414;-84
2023/07/24 08:21:35;;;;;;;4.50;1.80;;;;;;;32.32;44.48;99221.48;180734;1256;45104;-84
2023/07/24 08:25:39;;;;;;;4.00;3.10;;;;;;;32.33;44.19;99224.71;180943;1254;58668;-84
2023/07/24 08:29:43;;;;;;;4.80;2.40;;;;;;;32.23;43.37;99218.64;180751;1255;44916;-84
2023/07/24 08:33:47;;;;;;;4.70;1.40;;;;;;;31.89;42.70;99220.30;180828;1253;45943;-84
2023/07/24 08:37:53;;;;;;;2.80;1.40;;;;;;;31.67;43.46;99224.91;180843;1253;46015;-84
2023/07/24 08:41:57;;;;;;;27.90;5.30;;;;;;;31.59;43.23;99221.27;180985;1254;44672;-85
2023/07/24 08:46:02;;;;;;;2.70;2.40;;;;;;;31.50;43.11;99212.37;180935;1254;59359;-83
2023/07/24 08:50:09;;;;;;;4.50;2.30;;;;;;;31.54;43.45;99203.54;181118;1254;49331;-84
2023/07/24 08:54:13;;;;;;;10.10;3.10;;;;;;;31.40;43.54;99193.73;181320;1254;44583;-84
2023/07/24 08:58:17;;;;;;;6.20;2.20;;;;;;;31.13;43.13;99187.12;180889;1254;46098;-84
2023/07/24 09:02:21;;;;;;;3.00;2.00;;;;;;;30.97;44.51;99189.30;180897;1254;43517;-84
2023/07/24 09:06:26;;;;;;;4.70;2.70;;;;;;;31.02;44.54;99184.80;180963;1254;58013;-84
2023/07/24 09:10:31;;;;;;;3.10;2.60;;;;;;;31.10;44.30;99179.41;180830;1252;44064;-84
2023/07/24 09:14:35;;;;;;;2.90;2.10;;;;;;;31.36;43.67;99181.02;180949;1254;45943;-84
2023/07/24 09:18:42;;;;;;;4.40;2.30;;;;;;;31.41;42.56;99169.59;180788;1254;44537;-84
2023/07/24 09:22:51;;;;;;;3.30;2.40;;;;;;;31.47;42.81;99179.59;180742;1254;43736;-84
2023/07/24 09:27:07;;;;;;;4.20;2.00;;;;;;;31.32;43.38;99176.07;180699;1252;57008;-84
2023/07/24 09:31:10;;;;;;;5.90;2.80;;;;;;;31.16;43.25;99175.13;180932;1253;46012;-84
2023/07/24 09:35:18;;;;;;;4.20;3.00;;;;;;;31.05;43.61;99173.42;180840;1256;45931;-84
2023/07/24 09:39:26;;;;;;;23.00;5.70;;;;;;;31.44;43.76;99162.53;180924;1254;45978;-84
2023/07/24 09:43:35;;;;;;;4.90;3.30;;;;;;;31.79;43.17;99154.04;181061;1253;43498;-84
2023/07/24 09:47:43;;;;;;;6.20;2.70;;;;;;;32.13;41.96;99154.73;180896;1256;58221;-84
2023/07/24 09:51:53;;;;;;;4.00;2.80;;;;;;;32.35;41.63;99161.20;180781;1254;172669;-85
2023/07/24 09:55:59;;;;;;;25.40;4.80;;;;;;;32.61;41.95;99162.60;181155;1252;43581;-84
2023/07/24 10:00:04;;;;;;;2.90;2.40;;;;;;;32.75;40.64;99159.39;181111;1253;45463;-83
2023/07/24 10:04:09;;;;;;;21.10;5.20;;;;;;;32.67;40.81;99145.95;180970;1254;45932;-84
2023/07/24 10:08:19;;;;;;;24.70;5.70;;;;;;;32.66;41.48;99149.30;181245;1254;58716;-84
2023/07/24 10:12:31;;;;;;;57.50;11.40;;;;;;;32.84;41.33;99150.10;181118;1253;46159;-84
2023/07/24 10:16:35;;;;;;;20.30;4.70;;;;;;;32.82;40.03;99132.19;181429;1253;43794;-84
2023/07/24 10:20:41;;;;;;;4.90;2.80;;;;;;;32.73;40.55;99133.05;180996;1256;45932;-84
2023/07/24 10:24:45;;;;;;;5.40;3.30;;;;;;;32.70;41.61;99128.22;180915;1256;43948;-84
2023/07/24 10:28:50;;;;;;;;;;;;;;;32.85;41.57;99112.52;180734;1256;58262;-83
2023/07/24 10:33:19;;;;;;;6.10;3.60;;;;;;;33.16;40.78;99099.58;181144;1253;44228;-84
2023/07/24 10:37:34;;;;;;;4.10;2.70;;;;;;;33.45;39.97;99084.05;181038;1254;45951;-84
2023/07/24 10:41:39;;;;;;;4.60;2.60;;;;;;;33.65;40.08;99084.09;181139;1254;44552;-83
2023/07/24 10:45:51;;;;;;;5.30;3.80;;;;;;;33.83;39.03;99077.02;181003;1257;47801;-83
2023/07/24 10:49:57;;;;;;;8.30;4.50;;;;;;;33.88;38.73;99074.70;180959;1252;58270;-83
2023/07/24 10:54:03;;;;;;;10.10;3.60;;;;;;;33.95;38.86;99064.16;180974;1253;45960;-83
2023/07/24 10:58:08;;;;;;;5.00;3.00;;;;;;;34.00;37.96;99058.20;181252;1253;44527;-83
2023/07/24 11:02:13;;;;;;;5.90;3.40;;;;;;;33.82;38.11;99051.61;180964;1252;46137;-83
2023/07/24 11:06:19;;;;;;;20.70;4.80;;;;;;;33.88;39.88;99052.52;181023;1256;44142;-84
2023/07/24 11:10:23;;;;;;;5.40;3.50;;;;;;;33.99;40.08;99048.36;181225;1253;57913;-83
2023/07/24 11:14:27;;;;;;;3.90;3.20;;;;;;;34.03;39.84;99044.30;181029;1253;45917;-85
2023/07/24 11:18:31;;;;;;;9.30;3.30;;;;;;;34.12;40.07;99042.14;180895;1254;46073;-83
2023/07/24 11:22:58;;;;;;;10.30;4.60;;;;;;;34.16;39.94;99040.94;181103;1257;46213;-83
2023/07/24 11:27:10;;;;;;;5.00;3.50;;;;;;;34.19;40.17;99041.82;180914;1253;45959;-84
2023/07/24 11:31:15;;;;;;;4.70;3.30;;;;;;;34.05;41.10;99040.98;181119;1254;57898;-84
2023/07/24 11:35:21;;;;;;;8.90;4.00;;;;;;;33.98;41.73;99039.33;181076;1256;44588;-84
2023/07/24 11:39:25;;;;;;;12.80;5.50;;;;;;;33.97;42.67;99038.20;180943;1254;44254;-83
2023/07/24 11:43:30;;;;;;;6.50;4.50;;;;;;;33.91;42.39;99021.78;181001;1253;45966;-85
2023/07/24 11:47:43;;;;;;;;;;;;;;;33.94;42.34;99023.30;181189;1255;44036;-85
2023/07/24 11:51:47;;;;;;;6.00;3.70;;;;;;;33.90;41.22;99017.55;181608;1253;58018;-84
2023/07/24 11:55:53;;;;;;;9.00;4.20;;;;;;;33.71;40.81;99006.64;181205;1254;43895;-84
2023/07/24 11:59:58;;;;;;;7.60;4.90;;;;;;;33.59;40.85;99006.21;181096;1253;46025;-84
2023/07/24 12:04:02;;;;;;;9.80;4.80;;;;;;;33.50;41.11;99008.35;180957;1254;43996;-83
2023/07/24 12:08:07;;;;;;;5.30;4.10;;;;;;;33.37;41.06;99002.44;181145;1253;43753;-83
2023/07/24 12:12:16;;;;;;;28.30;8.30;;;;;;;33.31;42.19;99001.73;180895;1254;58123;-83
2023/07/24 12:16:20;;;;;;;8.70;5.70;;;;;;;33.32;42.36;99010.42;181084;1254;45865;-83
2023/07/24 12:20:24;;;;;;;6.80;4.50;;;;;;;33.15;42.04;99004.95;180986;1253;43914;-83
2023/07/24 12:24:28;;;;;;;31.50;10.00;;;;;;;32.81;42.37;99008.22;181074;1254;46733;-84
2023/07/24 12:28:32;;;;;;;16.90;6.80;;;;;;;32.42;43.16;99004.19;181165;1253;45938;-84
2023/07/24 12:32:36;;;;;;;6.20;4.90;;;;;;;32.03;43.96;99005.14;181032;1254;57890;-83
2023/07/24 12:36:39;;;;;;;6.40;5.70;;;;;;;31.74;44.72;99000.84;181005;1256;44593;-83
2023/07/24 12:40:43;;;;;;;13.10;6.10;;;;;;;31.39;45.05;99003.80;180762;1254;43843;-83
2023/07/24 12:44:46;;;;;;;67.70;15.10;;;;;;;31.12;45.02;99003.04;181047;1254;46749;-83
2023/07/24 12:48:50;;;;;;;22.70;6.70;;;;;;;30.86;45.51;99006.44;180900;1253;44541;-83
2023/07/24 12:52:53;;;;;;;16.20;7.00;;;;;;;30.69;46.24;99012.11;180977;1252;59270;-83
2023/07/24 12:56:57;;;;;;;10.90;5.30;;;;;;;30.45;46.59;99019.50;180769;1256;45879;-83
2023/07/24 13:01:00;;;;;;;17.30;6.80;;;;;;;30.17;46.43;99024.82;180864;1254;43809;-83
2023/07/24 13:05:04;;;;;;;12.20;5.20;;;;;;;30.08;46.83;99031.42;180733;1253;44703;-83
2023/07/24 13:09:08;;;;;;;9.70;6.60;;;;;;;30.00;47.40;99034.64;181096;1254;44274;-83
2023/07/24 13:13:12;;;;;;;6.50;5.00;;;;;;;30.00;47.53;99028.83;180853;1254;59199;-83
2023/07/24 13:17:16;;;;;;;11.20;6.60;;;;;;;30.11;48.64;99029.76;181134;1254;44105;-83
2023/07/24 13:21:19;;;;;;;9.70;6.00;;;;;;;30.22;48.07;99014.69;180790;1254;46034;-83
2023/07/24 13:25:23;;;;;;;10.20;5.70;;;;;;;30.23;48.30;99012.20;180686;1254;46041;-83
2023/07/24 13:29:27;;;;;;;29.70;9.30;;;;;;;30.24;48.35;99004.25;180596;1254;43872;-83
2023/07/24 13:33:31;;;;;;;12.60;7.50;;;;;;;30.22;49.00;98999.92;180994;1253;58247;-83
2023/07/24 13:37:36;;;;;;;7.90;5.10;;;;;;;30.22;49.16;98990.72;180846;1254;43980;-83
2023/07/24 13:41:42;;;;;;;7.10;5.30;;;;;;;30.29;49.38;98976.77;180751;1254;45974;-83
2023/07/24 13:45:47;;;;;;;6.80;5.50;;;;;;;30.40;48.95;98968.12;180878;1254;43361;-83
2023/07/24 13:49:51;;;;;;;7.30;6.20;;;;;;;30.50;49.47;98961.98;181055;1254;43604;-83
2023/07/24 13:53:57;;;;;;;9.60;6.40;;;;;;;30.50;48.80;98954.34;181298;1253;58192;-81
2023/07/24 13:58:01;;;;;;;8.60;5.70;;;;;;;30.59;48.94;98949.05;181295;1253;44211;-81
2023/07/24 14:02:06;;;;;;;29.50;8.30;;;;;;;30.64;48.95;98942.94;181191;1253;43884;-82
2023/07/24 14:06:10;;;;;;;7.60;5.30;;;;;;;30.72;48.29;98933.83;181527;1254;43563;-81
2023/07/24 14:10:14;;;;;;;9.80;5.20;;;;;;;30.77;47.95;98925.30;181127;1254;43654;-81
2023/07/24 14:14:18;;;;;;;10.40;6.80;;;;;;;30.83;48.51;98915.89;180859;1254;59847;-81
2023/07/24 14:18:22;;;;;;;7.90;6.00;;;;;;;31.04;48.37;98904.96;181271;1253;46526;-81
2023/07/24 14:22:26;;;;;;;8.90;5.50;;;;;;;31.26;48.18;98901.00;180811;1252;44500;-81
2023/07/24 14:26:31;;;;;;;10.90;5.10;;;;;;;31.37;48.14;98894.86;181197;1254;43864;-82
2023/07/24 14:30:35;;;;;;;9.50;5.50;;;;;;;31.42;47.48;98891.24;181260;1253;44601;-81
2023/07/24 14:34:39;;;;;;;9.20;6.30;;;;;;;31.40;47.84;98882.20;181113;1253;58896;-81
2023/07/24 14:38:47;;;;;;;12.60;6.30;;;;;;;31.27;47.74;98878.19;181230;1253;46047;-81
2023/07/24 14:42:51;;;;;;;8.40;6.30;;;;;;;31.17;47.85;98873.80;181085;1253;43870;-81
2023/07/24 14:46:55;;;;;;;9.10;6.00;;;;;;;31.08;48.49;98871.20;181277;1254;44420;-81
2023/07/24 14:51:05;;;;;;;10.30;6.90;;;;;;;30.99;48.74;98864.06;181761;1253;84985;-61
2023/07/24 14:55:08;;;;;;;11.30;6.70;;;;;;;30.84;48.52;98858.81;179932;1260;58238;-84
2023/07/24 14:59:12;;;;;;;8.70;5.90;;;;;;;30.56;48.96;98851.08;179962;1257;44317;-84
2023/07/24 15:03:15;;;;;;;6.50;5.80;;;;;;;30.53;49.29;98847.27;179974;1256;46267;-84
2023/07/24 15:07:18;;;;;;;7.50;5.70;;;;;;;30.44;49.67;98845.91;180756;1256;45259;-84
2023/07/24 15:11:22;;;;;;;9.90;6.40;;;;;;;30.40;49.83;98849.41;179996;1256;46031;-84
2023/07/24 15:15:26;;;;;;;;;;;;;;;30.40;50.28;98849.67;180368;1256;58073;-84
2023/07/24 15:19:29;;;;;;;8.40;5.10;;;;;;;30.37;50.55;98843.90;179735;1257;45953;-84
2023/07/24 15:23:33;;;;;;;7.70;5.80;;;;;;;30.33;51.26;98843.55;179222;1257;46087;-84
2023/07/24 15:27:36;;;;;;;17.80;8.00;;;;;;;30.32;51.57;98845.27;179010;1257;44097;-83
2023/07/24 15:31:40;;;;;;;7.40;4.50;;;;;;;30.33;51.78;98839.84;178729;1256;46105;-84
2023/07/24 15:35:44;;;;;;;9.40;5.90;;;;;;;30.38;51.49;98834.95;180073;1258;58573;-84
2023/07/24 15:39:47;;;;;;;31.20;10.40;;;;;;;30.40;51.48;98833.39;179609;1256;44877;-84
2023/07/24 15:43:50;;;;;;;14.00;6.00;;;;;;;30.44;52.39;98825.81;179170;1256;46007;-84
2023/07/24 15:47:53;;;;;;;15.90;6.90;;;;;;;30.49;52.35;98817.27;178351;1258;46677;-84
2023/07/24 15:51:56;;;;;;;43.00;6.90;;;;;;;30.55;51.90;98814.42;178894;1262;45920;-84
2023/07/24 15:55:59;;;;;;;10.40;6.60;;;;;;;30.63;52.21;98811.33;179588;1257;58013;-84
2023/07/24 16:00:05;;;;;;;11.10;6.40;;;;;;;30.62;50.96;98801.79;178923;1258;45876;-84
2023/07/24 16:04:08;;;;;;;11.80;6.30;;;;;;;30.56;51.08;98798.34;178603;1259;45965;-83
2023/07/24 16:08:11;;;;;;;8.30;5.20;;;;;;;30.56;52.63;98792.36;178643;1257;45965;-84
2023/07/24 16:12:14;;;;;;;124.50;23.00;;;;;;;30.66;52.22;98766.07;178566;1258;45998;-83
2023/07/24 16:16:18;;;;;;;9.80;6.10;;;;;;;30.68;51.42;98754.91;178488;1258;59531;-84
2023/07/24 16:20:21;;;;;;;139.00;30.50;;;;;;;30.53;52.05;98756.52;178652;1259;44768;-83
2023/07/24 16:24:24;;;;;;;25.90;8.40;;;;;;;30.48;52.94;98758.73;178460;1257;46107;-84
2023/07/24 16:28:27;;;;;;;8.60;5.50;;;;;;;30.43;52.51;98751.11;178675;1257;46074;-84
2023/07/24 16:32:30;;;;;;;9.20;7.00;;;;;;;30.36;52.65;98748.08;178511;1260;46032;-84
2023/07/24 16:36:34;;;;;;;9.50;6.50;;;;;;;30.25;52.77;98744.95;178688;1259;58498;-84
2023/07/24 16:40:38;;;;;;;16.20;6.50;;;;;;;30.07;52.56;98752.08;179973;1255;45952;-81
2023/07/24 16:44:41;;;;;;;9.40;6.40;;;;;;;29.79;53.30;98739.83;180978;1256;44496;-82
2023/07/24 16:48:48;;;;;;;11.10;5.80;;;;;;;29.58;51.94;98742.48;180886;1256;45901;-82
2023/07/24 16:52:52;;;;;;;8.40;5.60;;;;;;;29.40;54.03;98737.38;180750;1256;45920;-82
2023/07/24 16:56:55;;;;;;;9.60;5.60;;;;;;;29.19;55.50;98743.64;180918;1256;58576;-82
2023/07/24 17:01:00;;;;;;;6.70;5.20;;;;;;;28.97;56.76;98751.48;181249;1258;44474;-82
2023/07/24 17:05:04;;;;;;;14.10;7.80;;;;;;;28.68;58.18;98756.69;180991;1256;45971;-82
2023/07/24 17:09:08;;;;;;;9.80;6.50;;;;;;;28.43;59.71;98754.16;181295;1257;44782;-82
2023/07/24 17:13:12;;;;;;;12.80;8.00;;;;;;;28.26;60.79;98749.48;181090;1255;44558;-82
2023/07/24 17:17:16;;;;;;;11.00;6.90;;;;;;;28.13;61.38;98745.16;181230;1257;58152;-82
2023/07/24 17:21:21;;;;;;;10.90;6.80;;;;;;;27.98;62.14;98749.58;180851;1256;43473;-82
2023/07/24 17:25:25;;;;;;;15.80;7.90;;;;;;;27.90;62.93;98740.75;181263;1257;45533;-82
2023/07/24 17:29:28;;;;;;;11.70;6.40;;;;;;;27.93;63.29;98731.13;180857;1257;44143;-82
2023/07/24 17:33:32;;;;;;;10.10;6.60;;;;;;;27.99;63.66;98720.34;180908;1255;44206;-82
2023/07/24 17:37:37;;;;;;;7.70;5.50;;;;;;;28.02;63.71;98716.34;180831;1256;58601;-82
2023/07/24 17:41:41;;;;;;;;;;;;;;;28.06;63.78;98713.48;180615;1256;46067;-82
2023/07/24 17:45:46;;;;;;;11.90;7.40;;;;;;;28.11;64.17;98704.61;181159;1256;43890;-82
2023/07/24 17:49:50;;;;;;;10.80;6.90;;;;;;;28.12;64.11;98700.83;180815;1255;43562;-82
2023/07/24 17:54:10;;;;;;;35.00;12.80;;;;;;;28.09;64.49;98699.69;180995;1255;45880;-82
2023/07/24 17:58:14;;;;;;;10.60;6.90;;;;;;;28.01;64.39;98692.30;180752;1255;58596;-82
2023/07/24 18:02:21;;;;;;;14.00;7.50;;;;;;;27.85;64.94;98693.67;180795;1255;43690;-82
2023/07/24 18:06:25;;;;;;;;;;;;;;;27.74;65.48;98687.51;181045;1256;44275;-82
2023/07/24 18:10:31;;;;;;;11.70;6.20;;;;;;;27.51;66.73;98679.46;180884;1256;46028;-82
2023/07/24 18:14:36;;;;;;;12.60;7.30;;;;;;;27.32;67.04;98679.77;180602;1256;44154;-85
2023/07/24 18:18:41;;;;;;;11.40;6.80;;;;;;;27.18;67.84;98681.21;179301;1256;59259;-85
2023/07/24 18:22:49;;;;;;;13.80;8.40;;;;;;;27.03;67.97;98686.91;178940;1256;45895;-82
2023/07/24 18:26:53;;;;;;;13.40;7.80;;;;;;;26.92;68.86;98691.49;179539;1256;46026;-83
2023/07/24 18:30:56;;;;;;;11.20;7.00;;;;;;;26.78;69.53;98689.14;180200;1256;44291;-82
2023/07/24 18:35:00;;;;;;;19.60;7.80;;;;;;;26.59;70.54;98681.64;180189;1256;43991;-82
2023/07/24 18:39:04;;;;;;;12.60;9.00;;;;;;;26.42;71.35;98685.48;179259;1256;59363;-87
2023/07/24 18:43:08;;;;;;;38.40;12.80;;;;;;;26.29;70.85;98681.04;179900;1256;45978;-87
2023/07/24 18:47:11;;;;;;;75.60;17.90;;;;;;;26.19;71.01;98687.34;179622;1256;44639;-86
2023/07/24 18:51:14;;;;;;;49.30;17.30;;;;;;;26.09;71.10;98687.94;179565;1256;46067;-85
2023/07/24 18:55:18;;;;;;;56.60;14.70;;;;;;;25.97;71.10;98688.22;178833;1256;46005;-84